createdAt,value
2022-08-08T00:00:52.784Z,9.98
2022-08-08T00:03:32.916Z,11.18
2022-08-08T00:06:48.693Z,11.70
2022-08-08T00:10:17.260Z,11.20
2022-08-08T00:14:15.421Z,10.57
2022-08-08T00:17:48.122Z,11.93
2022-08-08T00:20:59.366Z,11.03
2022-08-08T00:24:13.168Z,11.80
2022-08-08T00:27:18.699Z,12.90
2022-08-08T00:30:23.910Z,12.10
2022-08-08T00:34:18.221Z,13.30
2022-08-08T00:37:08.115Z,10.88
2022-08-08T00:41:11.218Z,10.80
2022-08-08T00:44:13.644Z,10.63
2022-08-08T00:48:05.000Z,11.27
2022-08-08T00:51:11.362Z,10.98
2022-08-08T00:54:34.312Z,12.45
2022-08-08T00:58:12.698Z,10.82
2022-08-08T01:01:29.352Z,9.73
2022-08-08T01:08:28.633Z,10.88
2022-08-08T01:12:05.921Z,9.77
2022-08-08T01:15:43.681Z,10.52
2022-08-08T01:18:55.465Z,11.38
2022-08-08T01:22:41.102Z,10.88
2022-08-08T01:26:15.843Z,10.05
2022-08-08T01:29:58.922Z,9.35
2022-08-08T01:33:27.576Z,11.68
2022-08-08T01:37:01.951Z,10.82
2022-08-08T01:40:26.606Z,11.18
2022-08-08T01:43:40.319Z,11.82
2022-08-08T01:46:47.372Z,11.68
2022-08-08T01:50:09.496Z,13.30
2022-08-08T01:55:15.915Z,11.73
2022-08-08T01:58:10.650Z,10.90
2022-08-08T02:01:17.298Z,10.82
2022-08-08T02:04:37.435Z,11.05
2022-08-08T02:08:16.947Z,10.98
2022-08-08T02:11:53.193Z,12.13
2022-08-08T02:15:12.514Z,12.85
2022-08-08T02:18:17.669Z,12.57
2022-08-08T02:22:03.671Z,11.20
2022-08-08T02:25:21.161Z,11.20
2022-08-08T02:28:58.817Z,12.20
2022-08-08T02:32:22.338Z,14.60
2022-08-08T02:36:03.569Z,12.75
2022-08-08T02:39:58.459Z,14.40
2022-08-08T02:44:38.862Z,14.85
2022-08-08T02:47:05.565Z,14.65
2022-08-08T02:50:41.558Z,14.48
2022-08-08T02:54:07.866Z,15.70
2022-08-08T02:57:44.991Z,15.38
2022-08-08T03:01:47.223Z,18.10
2022-08-08T03:05:45.154Z,16.80
2022-08-08T03:09:28.806Z,14.40
2022-08-08T03:13:07.343Z,15.98
2022-08-08T03:16:43.213Z,17.40
2022-08-08T03:20:10.255Z,15.93
2022-08-08T03:23:13.086Z,17.30
2022-08-08T03:26:42.735Z,17.38
2022-08-08T03:29:56.019Z,15.77
2022-08-08T03:33:55.282Z,18.27
2022-08-08T03:36:42.148Z,16.27
2022-08-08T03:40:00.666Z,16.15
2022-08-08T03:43:16.555Z,15.70
2022-08-08T03:46:22.126Z,17.13
2022-08-08T03:49:54.869Z,17.33
2022-08-08T03:52:50.107Z,17.15
2022-08-08T03:55:58.005Z,18.23
2022-08-08T04:02:33.088Z,15.90
2022-08-08T04:05:39.866Z,17.27
2022-08-08T04:08:50.407Z,17.35
2022-08-08T04:11:58.809Z,15.73
2022-08-08T04:15:05.071Z,18.02
2022-08-08T04:18:16.428Z,17.40
2022-08-08T04:21:20.034Z,17.45
2022-08-08T04:24:29.608Z,18.20
2022-08-08T04:28:02.451Z,18.42
2022-08-08T04:30:57.628Z,19.67
2022-08-08T04:33:59.912Z,17.38
2022-08-08T04:37:03.899Z,17.80
2022-08-08T04:40:10.548Z,17.75
2022-08-08T04:43:14.309Z,18.90
2022-08-08T04:46:16.795Z,16.50
2022-08-08T04:49:20.914Z,20.15
2022-08-08T04:52:34.346Z,19.83
2022-08-08T04:55:55.635Z,19.98
2022-08-08T04:58:58.625Z,20.45
2022-08-08T05:02:04.343Z,18.55
2022-08-08T05:05:07.020Z,18.13
2022-08-08T05:08:18.282Z,20.10
2022-08-08T05:11:24.276Z,18.80
2022-08-08T05:14:29.058Z,20.90
2022-08-08T05:17:53.370Z,20.05
2022-08-08T05:20:54.420Z,19.50
2022-08-08T05:24:04.181Z,19.77
2022-08-08T05:27:11.140Z,22.17
2022-08-08T05:30:14.231Z,21.27
2022-08-08T05:33:17.851Z,20.70
2022-08-08T05:36:27.989Z,20.95
2022-08-08T05:39:34.962Z,21.63
2022-08-08T05:42:43.872Z,20.67
2022-08-08T05:45:53.324Z,21.75
2022-08-08T05:48:58.353Z,20.23
2022-08-08T05:52:03.505Z,20.15
2022-08-08T05:55:14.289Z,22.77
2022-08-08T05:58:17.313Z,21.48
2022-08-08T06:01:56.841Z,20.95
2022-08-08T06:08:02.383Z,19.33
2022-08-08T06:11:06.045Z,20.98
2022-08-08T06:14:12.917Z,21.23
2022-08-08T06:17:21.951Z,20.63
2022-08-08T06:20:49.490Z,20.80
2022-08-08T06:24:03.356Z,21.80
2022-08-08T06:30:20.384Z,22.02
2022-08-08T06:34:26.504Z,20.05
2022-08-08T06:37:10.128Z,19.48
2022-08-08T06:40:31.985Z,17.98
2022-08-08T06:43:39.417Z,21.92
2022-08-08T06:46:41.936Z,19.70
2022-08-08T06:49:56.667Z,19.65
2022-08-08T06:53:09.819Z,19.85
2022-08-08T06:56:16.876Z,17.52
2022-08-08T06:59:19.332Z,18.80
2022-08-08T07:02:28.585Z,17.63
2022-08-08T07:05:40.357Z,18.80
2022-08-08T07:08:47.956Z,16.30
2022-08-08T07:11:57.347Z,16.02
2022-08-08T07:15:06.119Z,15.52
2022-08-08T07:18:36.161Z,15.98
2022-08-08T07:22:05.602Z,16.60
2022-08-08T07:25:21.647Z,15.15
2022-08-08T07:28:33.430Z,14.82
2022-08-08T07:31:36.878Z,16.10
2022-08-08T07:34:48.310Z,13.32
2022-08-08T07:38:09.748Z,13.30
2022-08-08T07:41:24.755Z,12.43
2022-08-08T07:44:40.570Z,16.38
2022-08-08T07:47:45.717Z,14.10
2022-08-08T07:50:54.183Z,13.50
2022-08-08T07:54:27.001Z,12.02
2022-08-08T07:57:43.301Z,12.83
2022-08-08T08:00:53.199Z,13.20
2022-08-08T08:04:03.846Z,14.25
2022-08-08T08:07:08.907Z,14.27
2022-08-08T08:10:13.164Z,14.50
2022-08-08T08:13:43.172Z,12.82
2022-08-08T08:17:03.151Z,13.27
2022-08-08T08:20:11.582Z,12.93
2022-08-08T08:23:13.852Z,14.18
2022-08-08T08:29:30.426Z,13.90
2022-08-08T08:32:36.468Z,15.38
2022-08-08T08:36:18.448Z,12.40
2022-08-08T08:39:02.636Z,12.00
2022-08-08T08:42:11.335Z,12.25
2022-08-08T08:45:23.103Z,13.38
2022-08-08T08:48:26.577Z,13.40
2022-08-08T08:51:35.572Z,13.63
2022-08-08T08:54:39.144Z,13.10
2022-08-08T08:57:48.287Z,12.80
2022-08-08T09:01:09.087Z,13.32
2022-08-08T09:04:31.305Z,13.77
2022-08-08T09:07:52.309Z,14.75
2022-08-08T09:11:07.870Z,13.30
2022-08-08T09:14:11.923Z,12.77
2022-08-08T09:17:18.851Z,12.10
2022-08-08T09:21:56.136Z,11.88
2022-08-08T09:24:05.657Z,13.60
2022-08-08T09:27:20.398Z,12.80
2022-08-08T09:30:26.947Z,12.57
2022-08-08T09:34:14.535Z,12.77
2022-08-08T09:37:39.675Z,12.52
2022-08-08T09:40:46.437Z,10.07
2022-08-08T09:44:06.952Z,10.52
2022-08-08T09:48:04.552Z,10.15
2022-08-08T09:50:43.939Z,9.48
2022-08-08T09:54:05.159Z,10.88
2022-08-08T09:57:17.180Z,9.85
2022-08-08T10:00:50.052Z,9.00
2022-08-08T10:04:02.408Z,9.98
2022-08-08T10:07:07.974Z,9.20
2022-08-08T10:10:13.061Z,9.95
2022-08-08T10:13:26.180Z,9.50
2022-08-08T10:16:40.548Z,8.82
2022-08-08T10:19:57.306Z,9.15
2022-08-08T10:23:02.408Z,9.60
2022-08-08T10:26:25.911Z,8.98
2022-08-08T10:33:03.233Z,9.07
2022-08-08T10:36:20.952Z,9.70
2022-08-08T10:39:31.534Z,7.60
2022-08-08T10:42:48.681Z,8.80
2022-08-08T10:45:57.139Z,8.98
2022-08-08T10:49:00.971Z,8.52
2022-08-08T10:52:03.420Z,8.73
2022-08-08T10:55:40.536Z,8.73
2022-08-08T10:58:47.406Z,7.38
2022-08-08T11:01:57.239Z,7.13
2022-08-08T11:05:05.320Z,6.25
2022-08-08T11:08:36.635Z,6.15
2022-08-08T11:12:06.382Z,6.68
2022-08-08T11:15:06.947Z,7.13
2022-08-08T11:18:10.100Z,6.43
2022-08-08T11:21:20.484Z,6.05
2022-08-08T11:24:25.399Z,6.10
2022-08-08T11:27:36.986Z,6.30
2022-08-08T11:30:50.470Z,6.85
2022-08-08T11:34:01.752Z,5.35
2022-08-08T11:37:15.457Z,4.55
2022-08-08T11:40:22.582Z,6.05
2022-08-08T11:43:39.446Z,5.22
2022-08-08T11:46:45.985Z,5.38
2022-08-08T11:49:58.166Z,5.60
2022-08-08T11:53:01.080Z,6.43
2022-08-08T11:56:22.610Z,5.65
2022-08-08T12:00:00.747Z,4.93
2022-08-08T12:02:55.729Z,4.95
2022-08-08T12:05:58.058Z,4.88
2022-08-08T12:12:28.650Z,4.65
2022-08-08T12:15:42.177Z,5.72
2022-08-08T12:18:51.820Z,5.22
2022-08-08T12:22:13.426Z,4.80
2022-08-08T12:25:30.923Z,5.28
2022-08-08T12:28:34.129Z,4.97
2022-08-08T12:31:39.075Z,4.95
2022-08-08T12:35:04.719Z,4.78
2022-08-08T12:38:16.602Z,5.30
2022-08-08T12:41:34.878Z,5.32
2022-08-08T12:44:48.315Z,6.22
2022-08-08T12:48:10.601Z,5.05
2022-08-08T12:51:25.966Z,5.07
2022-08-08T12:54:47.426Z,5.30
2022-08-08T12:57:56.574Z,5.35
2022-08-08T13:01:11.147Z,5.18
2022-08-08T13:04:25.781Z,4.85
2022-08-08T13:08:03.924Z,5.00
2022-08-08T13:11:05.507Z,5.32
2022-08-08T13:14:17.406Z,4.65
2022-08-08T13:18:08.184Z,6.07
2022-08-08T13:20:49.532Z,5.18
2022-08-08T13:23:52.051Z,4.65
2022-08-08T13:27:03.236Z,4.20
2022-08-08T13:30:07.468Z,4.65
2022-08-08T13:33:11.386Z,4.45
2022-08-08T13:36:25.950Z,4.20
2022-08-08T13:39:29.087Z,4.50
2022-08-08T13:42:32.624Z,4.53
2022-08-08T13:45:35.266Z,4.95
2022-08-08T13:49:11.719Z,4.70
2022-08-08T13:52:36.144Z,5.05
2022-08-08T13:55:36.296Z,4.90
2022-08-08T13:58:57.513Z,4.45
2022-08-08T14:02:07.274Z,5.18
2022-08-08T14:05:21.818Z,5.07
2022-08-08T14:08:30.253Z,5.25
2022-08-08T14:11:37.220Z,4.45
2022-08-08T14:14:42.788Z,4.55
2022-08-08T14:21:20.913Z,5.40
2022-08-08T14:24:34.817Z,4.35
2022-08-08T14:27:40.360Z,4.05
2022-08-08T14:30:47.703Z,5.03
2022-08-08T14:33:54.953Z,4.53
2022-08-08T14:36:57.249Z,4.47
2022-08-08T14:40:05.481Z,5.82
2022-08-08T14:43:22.200Z,4.35
2022-08-08T14:46:32.669Z,4.45
2022-08-08T14:49:37.804Z,4.57
2022-08-08T14:53:14.230Z,10.32
2022-08-08T14:56:17.569Z,6.30
2022-08-08T14:59:44.483Z,4.72
2022-08-08T15:03:01.477Z,4.80
2022-08-08T15:06:16.565Z,3.90
2022-08-08T15:09:19.630Z,4.63
2022-08-08T15:12:27.760Z,4.95
2022-08-08T15:16:03.010Z,4.57
2022-08-08T15:18:53.173Z,3.22
2022-08-08T15:21:55.352Z,4.88
2022-08-08T15:25:00.251Z,4.32
2022-08-08T15:28:05.073Z,3.65
2022-08-08T15:32:03.140Z,3.50
2022-08-08T15:34:47.843Z,4.45
2022-08-08T15:37:50.134Z,5.30
2022-08-08T15:40:52.296Z,4.65
2022-08-08T15:44:00.592Z,4.22
2022-08-08T15:47:04.269Z,4.32
2022-08-08T15:50:13.404Z,4.43
2022-08-08T15:53:23.896Z,5.60
2022-08-08T15:56:28.243Z,4.05
2022-08-08T16:00:06.511Z,4.80
2022-08-08T16:02:53.360Z,4.50
2022-08-08T16:06:02.037Z,4.65
2022-08-08T16:13:05.740Z,4.82
2022-08-08T16:13:09.377Z,4.72
2022-08-08T16:15:58.245Z,5.40
2022-08-08T16:19:02.208Z,4.15
2022-08-08T16:25:10.675Z,4.20
2022-08-08T16:28:22.925Z,4.82
2022-08-08T16:31:48.599Z,5.05
2022-08-08T16:34:51.770Z,4.43
2022-08-08T16:37:53.954Z,4.78
2022-08-08T16:41:00.181Z,5.00
2022-08-08T16:44:04.826Z,4.18
2022-08-08T16:47:18.256Z,4.07
2022-08-08T16:50:24.193Z,4.75
2022-08-08T16:55:06.470Z,3.95
2022-08-08T16:57:04.128Z,3.90
2022-08-08T17:00:12.551Z,4.40
2022-08-08T17:03:58.046Z,5.63
2022-08-08T17:06:51.263Z,4.93
2022-08-08T17:09:53.676Z,4.22
2022-08-08T17:12:56.237Z,5.10
2022-08-08T17:15:58.400Z,5.35
2022-08-08T17:19:00.845Z,4.68
2022-08-08T17:22:05.948Z,5.10
2022-08-08T17:25:16.856Z,4.82
2022-08-08T17:28:19.141Z,4.78
2022-08-08T17:31:45.319Z,5.80
2022-08-08T17:35:52.617Z,6.20
2022-08-08T17:38:15.098Z,6.35
2022-08-08T17:41:17.437Z,5.47
2022-08-08T17:44:27.023Z,5.18
2022-08-08T17:50:42.315Z,5.03
2022-08-08T17:53:46.471Z,6.28
2022-08-08T17:57:01.294Z,5.88
2022-08-08T18:03:22.781Z,6.40
2022-08-08T18:06:31.048Z,5.80
2022-08-08T18:09:37.972Z,6.47
2022-08-08T18:12:42.780Z,7.80
2022-08-08T18:15:46.725Z,6.80
2022-08-08T18:19:02.796Z,7.70
2022-08-08T18:22:06.104Z,7.97
2022-08-08T18:25:28.523Z,7.47
2022-08-08T18:28:54.122Z,8.90
2022-08-08T18:32:03.551Z,9.32
2022-08-08T18:35:09.878Z,9.73
2022-08-08T18:38:19.350Z,9.35
2022-08-08T18:41:51.036Z,8.70
2022-08-08T18:44:55.133Z,10.25
2022-08-08T18:47:58.274Z,11.50
2022-08-08T18:51:01.453Z,10.50
2022-08-08T18:54:13.658Z,10.52
2022-08-08T18:57:24.381Z,11.30
2022-08-08T19:00:26.638Z,11.85
2022-08-08T19:03:30.374Z,10.55
2022-08-08T19:06:52.483Z,11.23
2022-08-08T19:10:14.810Z,11.50
2022-08-08T19:13:21.412Z,11.07
2022-08-08T19:16:28.594Z,13.07
2022-08-08T19:19:34.174Z,11.57
2022-08-08T19:22:37.763Z,11.05
2022-08-08T19:26:02.422Z,11.13
2022-08-08T19:29:04.961Z,11.13
2022-08-08T19:32:12.689Z,10.68
2022-08-08T19:35:15.771Z,11.60
2022-08-08T19:38:22.572Z,11.90
2022-08-08T19:41:34.861Z,12.30
2022-08-08T19:44:42.851Z,10.00
2022-08-08T19:47:46.125Z,12.38
2022-08-08T19:50:50.574Z,12.13
2022-08-08T19:53:54.359Z,11.15
2022-08-08T19:59:58.801Z,12.23
2022-08-08T20:03:15.049Z,11.82
2022-08-08T20:06:24.616Z,12.02
2022-08-08T20:09:29.941Z,12.93
2022-08-08T20:12:35.750Z,15.02
2022-08-08T20:15:52.360Z,12.73
2022-08-08T20:19:01.508Z,12.95
2022-08-08T20:22:05.113Z,14.82
2022-08-08T20:25:24.613Z,15.13
2022-08-08T20:28:32.723Z,12.90
2022-08-08T20:32:08.177Z,13.15
2022-08-08T20:35:00.772Z,15.60
2022-08-08T20:38:03.940Z,13.40
2022-08-08T20:41:19.010Z,15.48
2022-08-08T20:44:21.750Z,14.60
2022-08-08T20:47:35.873Z,14.18
2022-08-08T20:50:39.106Z,13.63
2022-08-08T20:54:00.040Z,12.63
2022-08-08T20:57:05.689Z,12.75
2022-08-08T21:00:19.816Z,15.27
2022-08-08T21:03:21.952Z,14.48
2022-08-08T21:06:52.478Z,14.68
2022-08-08T21:09:48.604Z,13.05
2022-08-08T21:13:08.672Z,14.00
2022-08-08T21:16:20.701Z,17.00
2022-08-08T21:19:44.200Z,14.35
2022-08-08T21:22:48.622Z,14.05
2022-08-08T21:25:55.077Z,15.60
2022-08-08T21:29:01.073Z,16.52
2022-08-08T21:32:07.816Z,14.95
2022-08-08T21:36:13.587Z,14.55
2022-08-08T21:38:45.619Z,14.43
2022-08-08T21:41:53.693Z,16.60
2022-08-08T21:45:44.474Z,16.92
2022-08-08T21:48:35.146Z,15.90
2022-08-08T21:54:31.174Z,16.45
2022-08-08T21:55:23.896Z,16.38
2022-08-08T21:58:32.017Z,16.75
2022-08-08T22:01:40.539Z,15.93
2022-08-08T22:04:45.165Z,16.33
2022-08-08T22:07:49.028Z,16.40
2022-08-08T22:10:54.072Z,16.83
2022-08-08T22:13:56.352Z,17.15
2022-08-08T22:17:01.229Z,18.48
2022-08-08T22:20:11.502Z,18.58
2022-08-08T22:23:17.732Z,18.75
2022-08-08T22:26:29.011Z,18.17
2022-08-08T22:29:58.744Z,17.90
2022-08-08T22:32:55.000Z,18.83
2022-08-08T22:36:05.338Z,19.48
2022-08-08T22:39:18.946Z,17.70
2022-08-08T22:42:27.199Z,18.88
2022-08-08T22:45:29.872Z,19.38
2022-08-08T22:48:33.191Z,18.88
2022-08-08T22:51:45.950Z,17.50
2022-08-08T22:54:56.019Z,18.20
2022-08-08T22:58:07.417Z,18.70
2022-08-08T23:01:16.591Z,18.70
2022-08-08T23:04:33.620Z,17.67
2022-08-08T23:07:57.107Z,19.67
2022-08-08T23:11:05.924Z,18.65
2022-08-08T23:14:11.379Z,19.73
2022-08-08T23:17:14.474Z,17.83
2022-08-08T23:20:19.797Z,17.90
2022-08-08T23:23:23.000Z,19.77
2022-08-08T23:26:25.350Z,18.60
2022-08-08T23:29:33.512Z,17.50
2022-08-08T23:32:35.926Z,20.70
2022-08-08T23:35:58.844Z,19.13
2022-08-08T23:39:08.379Z,17.73
2022-08-08T23:42:10.649Z,18.27
2022-08-08T23:45:12.987Z,19.05
2022-08-08T23:49:00.923Z,18.70
2022-08-08T23:52:05.472Z,19.50
2022-08-08T23:55:07.162Z,18.95
2022-08-08T23:58:32.180Z,18.77
